createdAt,value
2022-09-29T00:01:06.630Z,85.78
2022-09-29T00:03:34.093Z,85.82
2022-09-29T00:06:01.479Z,85.57
2022-09-29T00:08:30.437Z,85.24
2022-09-29T00:10:58.017Z,85.64
2022-09-29T00:13:25.200Z,85.36
2022-09-29T00:16:00.230Z,85.80
2022-09-29T00:18:28.265Z,86.20
2022-09-29T00:21:10.897Z,86.40
2022-09-29T00:23:38.499Z,86.39
2022-09-29T00:26:09.384Z,85.96
2022-09-29T00:28:38.029Z,86.40
2022-09-29T00:31:06.496Z,86.01
2022-09-29T00:33:35.484Z,86.48
2022-09-29T00:36:13.762Z,86.13
2022-09-29T00:38:42.378Z,86.07
2022-09-29T00:41:18.269Z,86.09
2022-09-29T00:44:01.483Z,86.38
2022-09-29T00:46:45.386Z,86.67
2022-09-29T00:49:20.213Z,86.40
2022-09-29T00:51:54.692Z,86.47
2022-09-29T00:54:22.669Z,85.86
2022-09-29T00:56:50.179Z,85.12
2022-09-29T00:59:22.944Z,85.17
2022-09-29T01:01:50.047Z,86.26
2022-09-29T01:04:19.312Z,85.21
2022-09-29T01:06:51.799Z,85.11
2022-09-29T01:09:21.455Z,84.53
2022-09-29T01:11:49.123Z,85.60
2022-09-29T01:14:16.600Z,85.66
2022-09-29T01:16:44.328Z,85.47
2022-09-29T01:19:15.340Z,84.67
2022-09-29T01:22:05.524Z,84.41
2022-09-29T01:24:44.663Z,84.86
2022-09-29T01:27:39.439Z,84.16
2022-09-29T01:30:23.318Z,84.46
2022-09-29T01:33:00.926Z,84.73
2022-09-29T01:35:50.306Z,84.71
2022-09-29T01:38:36.042Z,85.20
2022-09-29T01:41:14.879Z,85.03
2022-09-29T01:43:56.008Z,85.29
2022-09-29T01:46:24.621Z,86.05
2022-09-29T01:48:53.359Z,85.56
2022-09-29T01:51:44.040Z,85.21
2022-09-29T01:54:19.239Z,85.81
2022-09-29T01:57:07.435Z,85.57
2022-09-29T01:59:45.419Z,86.03
2022-09-29T02:02:20.123Z,86.63
2022-09-29T02:04:51.295Z,85.44
2022-09-29T02:07:23.977Z,86.42
2022-09-29T02:09:55.151Z,86.93
2022-09-29T02:12:25.616Z,86.13
2022-09-29T02:14:53.744Z,86.11
2022-09-29T02:17:23.275Z,85.49
2022-09-29T02:19:52.089Z,85.14
2022-09-29T02:22:19.722Z,85.17
2022-09-29T02:24:47.495Z,85.95
2022-09-29T02:27:14.589Z,85.37
2022-09-29T02:29:41.978Z,86.16
2022-09-29T02:32:09.830Z,85.84
2022-09-29T02:34:41.455Z,85.07
2022-09-29T02:37:26.897Z,85.65
2022-09-29T02:40:28.958Z,85.44
2022-09-29T02:42:58.844Z,85.96
2022-09-29T02:45:57.031Z,85.47
2022-09-29T02:48:34.444Z,86.00
2022-09-29T02:51:27.047Z,85.31
2022-09-29T02:54:13.519Z,85.84
2022-09-29T02:56:43.524Z,85.41
2022-09-29T02:59:15.522Z,85.29
2022-09-29T03:01:54.014Z,85.48
2022-09-29T03:04:23.279Z,85.71
2022-09-29T03:06:50.447Z,86.16
2022-09-29T03:09:18.019Z,86.26
2022-09-29T03:11:45.180Z,86.76
2022-09-29T03:14:12.998Z,85.96
2022-09-29T03:16:40.381Z,86.92
2022-09-29T03:19:07.746Z,86.33
2022-09-29T03:21:35.562Z,85.15
2022-09-29T03:24:02.891Z,86.21
2022-09-29T03:26:30.285Z,86.13
2022-09-29T03:28:57.393Z,86.26
2022-09-29T03:31:24.623Z,86.58
2022-09-29T03:33:51.745Z,86.04
2022-09-29T03:36:18.850Z,85.94
2022-09-29T03:38:47.253Z,85.63
2022-09-29T03:41:14.457Z,85.42
2022-09-29T03:43:41.781Z,86.61
2022-09-29T03:46:08.966Z,85.17
2022-09-29T03:48:36.287Z,84.07
2022-09-29T03:51:03.872Z,84.66
2022-09-29T03:53:31.378Z,85.81
2022-09-29T03:55:58.462Z,86.28
2022-09-29T03:58:25.804Z,85.97
2022-09-29T04:00:53.114Z,85.51
2022-09-29T04:03:20.694Z,85.55
2022-09-29T04:05:48.728Z,85.73
2022-09-29T04:08:16.966Z,84.53
2022-09-29T04:10:46.426Z,84.95
2022-09-29T04:13:19.034Z,84.93
2022-09-29T04:15:48.394Z,84.93
2022-09-29T04:18:15.527Z,84.69
2022-09-29T04:20:42.578Z,84.83
2022-09-29T04:23:09.696Z,84.31
2022-09-29T04:25:36.834Z,84.70
2022-09-29T04:28:04.146Z,85.57
2022-09-29T04:30:31.241Z,84.83
2022-09-29T04:32:58.382Z,84.83
2022-09-29T04:35:25.497Z,85.80
2022-09-29T04:37:57.156Z,85.39
2022-09-29T04:40:24.965Z,85.07
2022-09-29T04:42:52.119Z,84.71
2022-09-29T04:45:19.295Z,84.35
2022-09-29T04:47:46.509Z,85.71
2022-09-29T04:50:13.667Z,85.08
2022-09-29T04:52:45.485Z,84.79
2022-09-29T04:55:12.982Z,84.99
2022-09-29T04:57:41.650Z,84.98
2022-09-29T05:00:09.456Z,85.53
2022-09-29T05:02:38.099Z,85.75
2022-09-29T05:05:06.608Z,84.76
2022-09-29T05:07:37.668Z,84.28
2022-09-29T05:10:05.196Z,85.33
2022-09-29T05:12:32.661Z,85.12
2022-09-29T05:14:59.835Z,85.88
2022-09-29T05:17:27.020Z,85.48
2022-09-29T05:19:54.376Z,84.81
2022-09-29T05:22:24.502Z,84.45
2022-09-29T05:24:52.453Z,85.85
2022-09-29T05:27:19.700Z,86.77
2022-09-29T05:29:46.802Z,86.10
2022-09-29T05:32:13.860Z,86.98
2022-09-29T05:34:40.918Z,86.21
2022-09-29T05:37:08.060Z,85.79
2022-09-29T05:39:37.159Z,85.94
2022-09-29T05:42:11.299Z,84.91
2022-09-29T05:44:38.371Z,86.06
2022-09-29T05:47:05.527Z,85.22
2022-09-29T05:49:33.130Z,85.66
2022-09-29T05:52:00.567Z,86.05
2022-09-29T05:54:27.714Z,86.43
2022-09-29T05:56:54.941Z,85.51
2022-09-29T05:59:22.162Z,85.80
2022-09-29T06:01:49.261Z,86.00
2022-09-29T06:04:17.464Z,86.23
2022-09-29T06:06:44.690Z,86.29
2022-09-29T06:09:11.932Z,86.04
2022-09-29T06:11:39.088Z,85.77
2022-09-29T06:14:06.201Z,85.52
2022-09-29T06:16:34.223Z,86.88
2022-09-29T06:19:01.730Z,86.37
2022-09-29T06:21:30.069Z,86.07
2022-09-29T06:23:57.848Z,86.29
2022-09-29T06:26:26.179Z,86.73
2022-09-29T06:28:54.074Z,86.73
2022-09-29T06:31:24.129Z,87.04
2022-09-29T06:33:51.849Z,86.97
2022-09-29T06:36:49.342Z,87.13
2022-09-29T06:39:16.798Z,87.23
2022-09-29T06:42:03.245Z,88.03
2022-09-29T06:44:30.860Z,86.98
2022-09-29T06:46:58.548Z,86.67
2022-09-29T06:49:25.647Z,86.88
2022-09-29T06:51:52.808Z,86.58
2022-09-29T06:54:22.005Z,86.24
2022-09-29T06:56:53.707Z,86.13
2022-09-29T06:59:21.329Z,86.19
2022-09-29T07:01:50.812Z,85.79
2022-09-29T07:04:19.860Z,86.27
2022-09-29T07:06:47.668Z,86.54
2022-09-29T07:09:18.051Z,86.39
2022-09-29T07:11:47.576Z,86.84
2022-09-29T07:14:15.791Z,86.87
2022-09-29T07:16:43.600Z,86.87
2022-09-29T07:19:10.793Z,86.88
2022-09-29T07:21:38.009Z,86.58
2022-09-29T07:24:05.234Z,86.84
2022-09-29T07:26:32.350Z,86.98
2022-09-29T07:28:59.471Z,86.88
2022-09-29T07:31:26.673Z,87.01
2022-09-29T07:33:53.814Z,87.12
2022-09-29T07:36:21.277Z,87.03
2022-09-29T07:38:49.510Z,86.52
2022-09-29T07:41:18.138Z,86.88
2022-09-29T07:43:45.265Z,87.26
2022-09-29T07:46:12.597Z,86.71
2022-09-29T07:48:40.186Z,85.81
2022-09-29T07:51:15.237Z,85.75
2022-09-29T07:53:42.340Z,85.57
2022-09-29T07:56:18.653Z,85.41
2022-09-29T07:58:47.758Z,85.09
2022-09-29T08:01:16.211Z,84.95
2022-09-29T08:03:47.288Z,84.75
2022-09-29T08:06:14.958Z,83.94
2022-09-29T08:08:53.958Z,83.34
2022-09-29T08:11:31.242Z,83.47
2022-09-29T08:14:00.485Z,83.09
2022-09-29T08:16:27.931Z,82.89
2022-09-29T08:18:55.225Z,83.06
2022-09-29T08:21:22.694Z,82.76
2022-09-29T08:23:49.919Z,82.80
2022-09-29T08:26:23.252Z,83.09
2022-09-29T08:29:06.078Z,83.06
2022-09-29T08:31:35.391Z,82.08
2022-09-29T08:34:02.593Z,82.04
2022-09-29T08:36:29.976Z,81.19
2022-09-29T08:38:57.983Z,80.70
2022-09-29T08:41:28.536Z,77.90
2022-09-29T08:44:10.310Z,77.66
2022-09-29T08:46:43.194Z,78.24
2022-09-29T08:49:38.284Z,77.92
2022-09-29T08:52:16.793Z,75.25
2022-09-29T08:54:49.218Z,76.16
2022-09-29T08:57:21.427Z,75.33
2022-09-29T08:59:56.863Z,73.95
2022-09-29T09:02:45.973Z,74.30
2022-09-29T09:05:42.087Z,74.00
2022-09-29T09:08:35.368Z,73.88
2022-09-29T09:11:21.113Z,74.98
2022-09-29T09:13:57.105Z,73.83
2022-09-29T09:16:53.492Z,73.46
2022-09-29T09:19:45.257Z,72.85
2022-09-29T09:22:22.785Z,72.49
2022-09-29T09:24:58.654Z,71.06
2022-09-29T09:27:29.195Z,71.54
2022-09-29T09:30:04.211Z,71.09
2022-09-29T09:32:35.407Z,70.97
2022-09-29T09:35:23.469Z,69.02
2022-09-29T09:37:53.900Z,68.90
2022-09-29T09:40:32.140Z,68.15
2022-09-29T09:43:10.801Z,68.58
2022-09-29T09:45:43.586Z,69.42
2022-09-29T09:48:13.808Z,68.28
2022-09-29T09:50:43.037Z,68.43
2022-09-29T09:53:22.275Z,68.26
2022-09-29T09:55:58.429Z,69.42
2022-09-29T09:58:43.317Z,68.30
2022-09-29T10:01:12.313Z,68.37
2022-09-29T10:03:39.521Z,66.56
2022-09-29T10:06:07.702Z,68.32
2022-09-29T10:08:39.705Z,67.71
2022-09-29T10:11:23.282Z,69.10
2022-09-29T10:13:57.405Z,67.49
2022-09-29T10:16:29.358Z,64.29
2022-09-29T10:18:56.544Z,62.40
2022-09-29T10:21:29.030Z,64.05
2022-09-29T10:23:57.244Z,64.88
2022-09-29T10:26:27.270Z,62.50
2022-09-29T10:28:58.343Z,64.61
2022-09-29T10:31:34.765Z,63.96
2022-09-29T10:34:11.577Z,63.78
2022-09-29T10:36:57.246Z,61.75
2022-09-29T10:39:43.922Z,62.72
2022-09-29T10:42:22.129Z,61.36
2022-09-29T10:44:56.194Z,59.46
2022-09-29T10:47:26.502Z,62.02
2022-09-29T10:50:18.154Z,62.83
2022-09-29T10:52:51.129Z,63.12
2022-09-29T10:55:21.067Z,64.65
2022-09-29T10:57:48.642Z,64.68
2022-09-29T11:00:26.177Z,63.65
2022-09-29T11:02:54.104Z,63.49
2022-09-29T11:05:26.057Z,62.90
2022-09-29T11:08:13.611Z,63.02
2022-09-29T11:11:07.132Z,62.90
2022-09-29T11:13:56.021Z,62.64
2022-09-29T11:16:53.463Z,63.29
2022-09-29T11:19:40.859Z,62.84
2022-09-29T11:22:34.225Z,62.43
2022-09-29T11:25:48.107Z,62.00
2022-09-29T11:28:57.314Z,61.94
2022-09-29T11:31:56.563Z,62.56
2022-09-29T11:34:46.924Z,62.75
2022-09-29T11:37:58.074Z,63.13
2022-09-29T11:41:02.418Z,61.86
2022-09-29T11:43:56.346Z,62.49
2022-09-29T11:47:00.536Z,61.77
2022-09-29T11:50:06.725Z,61.10
2022-09-29T11:53:04.227Z,60.31
2022-09-29T11:56:03.804Z,61.05
2022-09-29T11:59:00.218Z,60.37
2022-09-29T12:02:18.767Z,61.27
2022-09-29T12:05:43.113Z,59.61
2022-09-29T12:09:01.053Z,61.00
2022-09-29T12:12:23.652Z,61.75
2022-09-29T12:15:11.011Z,62.68
2022-09-29T12:18:02.359Z,61.06
2022-09-29T12:20:53.190Z,61.55
2022-09-29T12:23:41.171Z,61.28
2022-09-29T12:26:29.381Z,62.16
2022-09-29T12:29:02.377Z,60.37
2022-09-29T12:31:39.197Z,58.65
2022-09-29T12:34:13.709Z,58.63
2022-09-29T12:37:05.895Z,59.33
2022-09-29T12:40:04.263Z,59.41
2022-09-29T12:42:51.086Z,59.64
2022-09-29T12:45:35.666Z,59.69
2022-09-29T12:48:33.913Z,58.69
2022-09-29T12:51:14.926Z,58.16
2022-09-29T12:54:18.271Z,59.11
2022-09-29T12:56:55.768Z,58.32
2022-09-29T12:59:23.539Z,58.25
2022-09-29T13:01:55.071Z,57.27
2022-09-29T13:04:50.724Z,56.35
2022-09-29T13:07:45.919Z,59.01
2022-09-29T13:10:43.513Z,58.77
2022-09-29T13:13:27.005Z,57.26
2022-09-29T13:16:35.744Z,56.88
2022-09-29T13:19:52.506Z,56.97
2022-09-29T13:22:41.831Z,59.08
2022-09-29T13:25:21.079Z,58.00
2022-09-29T13:27:48.786Z,58.11
2022-09-29T13:30:20.542Z,58.24
2022-09-29T13:32:51.244Z,57.85
2022-09-29T13:35:20.734Z,58.91
2022-09-29T13:37:54.117Z,58.58
2022-09-29T13:40:25.282Z,57.70
2022-09-29T13:42:55.854Z,58.10
2022-09-29T13:45:31.319Z,59.18
2022-09-29T13:48:04.250Z,58.67
2022-09-29T13:50:51.214Z,59.05
2022-09-29T13:53:28.209Z,59.76
2022-09-29T13:55:56.135Z,58.91
2022-09-29T13:58:27.419Z,58.05
2022-09-29T14:00:56.337Z,58.93
2022-09-29T14:03:32.219Z,59.87
2022-09-29T14:09:12.774Z,59.94
2022-09-29T14:11:51.212Z,60.85
2022-09-29T14:14:34.952Z,60.68
2022-09-29T14:17:12.952Z,61.08
2022-09-29T14:19:51.031Z,60.67
2022-09-29T14:22:30.019Z,61.35
2022-09-29T14:25:10.238Z,60.81
2022-09-29T14:27:51.769Z,61.59
2022-09-29T14:30:33.044Z,61.14
2022-09-29T14:33:23.424Z,60.27
2022-09-29T14:36:00.117Z,61.11
2022-09-29T14:39:02.718Z,61.17
2022-09-29T14:41:41.850Z,61.46
2022-09-29T14:44:12.417Z,61.65
2022-09-29T14:46:57.949Z,61.95
2022-09-29T14:50:34.823Z,61.92
2022-09-29T14:53:31.516Z,61.19
2022-09-29T14:56:46.276Z,61.63
2022-09-29T14:59:28.780Z,61.57
2022-09-29T15:02:16.635Z,62.44
2022-09-29T15:04:44.988Z,62.78
2022-09-29T15:07:16.912Z,62.41
2022-09-29T15:09:52.791Z,63.16
2022-09-29T15:12:28.198Z,63.20
2022-09-29T15:14:58.035Z,63.97
2022-09-29T15:17:34.523Z,63.06
2022-09-29T15:20:24.009Z,63.08
2022-09-29T15:22:57.140Z,63.15
2022-09-29T15:25:31.014Z,63.12
2022-09-29T15:28:10.739Z,63.64
2022-09-29T15:30:37.936Z,63.61
2022-09-29T15:33:19.495Z,64.46
2022-09-29T15:35:51.125Z,63.72
2022-09-29T15:38:24.280Z,63.64
2022-09-29T15:41:03.789Z,63.33
2022-09-29T15:43:42.640Z,63.55
2022-09-29T15:46:35.362Z,63.46
2022-09-29T15:49:05.373Z,63.10
2022-09-29T15:51:32.656Z,64.12
2022-09-29T15:54:04.059Z,64.23
2022-09-29T15:56:54.089Z,64.22
2022-09-29T15:59:22.823Z,64.00
2022-09-29T16:01:50.287Z,64.38
2022-09-29T16:04:17.531Z,64.72
2022-09-29T16:06:46.377Z,64.25
2022-09-29T16:09:19.101Z,64.77
2022-09-29T16:11:46.269Z,65.53
2022-09-29T16:14:23.636Z,65.72
2022-09-29T16:16:52.346Z,65.49
2022-09-29T16:19:26.621Z,65.57
2022-09-29T16:21:57.172Z,65.64
2022-09-29T16:24:30.168Z,65.82
2022-09-29T16:26:58.589Z,65.93
2022-09-29T16:29:33.780Z,66.17
2022-09-29T16:32:32.879Z,66.57
2022-09-29T16:35:39.695Z,66.98
2022-09-29T16:38:14.550Z,66.79
2022-09-29T16:40:41.636Z,67.36
2022-09-29T16:43:23.005Z,68.35
2022-09-29T16:45:51.717Z,68.46
2022-09-29T16:48:19.987Z,68.17
2022-09-29T16:50:48.441Z,68.52
2022-09-29T16:53:32.978Z,68.55
2022-09-29T16:56:33.488Z,68.08
2022-09-29T16:59:21.035Z,67.44
2022-09-29T17:01:48.343Z,67.59
2022-09-29T17:04:15.801Z,67.59
2022-09-29T17:06:47.280Z,68.70
2022-09-29T17:09:20.193Z,69.21
2022-09-29T17:11:49.465Z,69.17
2022-09-29T17:14:18.463Z,68.47
2022-09-29T17:16:46.014Z,68.41
2022-09-29T17:19:13.236Z,68.44
2022-09-29T17:21:40.383Z,68.17
2022-09-29T17:24:07.501Z,68.44
2022-09-29T17:26:56.319Z,68.93
2022-09-29T17:29:23.475Z,69.07
2022-09-29T17:31:50.702Z,69.09
2022-09-29T17:34:29.079Z,69.76
2022-09-29T17:37:01.823Z,69.55
2022-09-29T17:39:29.405Z,69.86
2022-09-29T17:41:58.119Z,69.55
2022-09-29T17:44:27.376Z,69.43
2022-09-29T17:47:10.828Z,69.57
2022-09-29T17:49:49.917Z,69.77
2022-09-29T17:52:19.705Z,70.06
2022-09-29T17:54:47.206Z,70.22
2022-09-29T17:57:25.764Z,69.99
2022-09-29T17:59:52.933Z,70.56
2022-09-29T18:02:20.138Z,70.87
2022-09-29T18:04:49.334Z,70.60
2022-09-29T18:07:16.644Z,71.00
2022-09-29T18:09:44.654Z,71.57
2022-09-29T18:12:11.838Z,71.65
2022-09-29T18:14:39.008Z,71.97
2022-09-29T18:17:06.178Z,71.82
2022-09-29T18:19:35.810Z,71.77
2022-09-29T18:22:06.120Z,71.80
2022-09-29T18:24:34.252Z,72.07
2022-09-29T18:27:01.445Z,72.16
2022-09-29T18:29:31.525Z,72.42
2022-09-29T18:31:59.180Z,72.04
2022-09-29T18:34:26.829Z,72.22
2022-09-29T18:36:53.868Z,72.77
2022-09-29T18:39:21.195Z,72.74
2022-09-29T18:41:48.371Z,72.28
2022-09-29T18:44:16.721Z,71.93
2022-09-29T18:46:44.435Z,71.76
2022-09-29T18:49:13.190Z,72.15
2022-09-29T18:51:40.348Z,71.69
2022-09-29T18:54:07.581Z,71.46
2022-09-29T18:56:35.298Z,71.28
2022-09-29T18:59:03.831Z,71.03
2022-09-29T19:01:31.164Z,71.44
2022-09-29T19:03:58.721Z,71.85
2022-09-29T19:06:26.043Z,71.57
2022-09-29T19:08:53.079Z,71.45
2022-09-29T19:11:23.880Z,71.89
2022-09-29T19:13:54.105Z,71.77
2022-09-29T19:16:22.614Z,72.24
2022-09-29T19:18:49.750Z,73.19
2022-09-29T19:21:16.902Z,73.06
2022-09-29T19:23:46.631Z,73.00
2022-09-29T19:26:20.242Z,73.30
2022-09-29T19:28:48.328Z,72.93
2022-09-29T19:31:19.360Z,72.93
2022-09-29T19:33:47.344Z,74.05
2022-09-29T19:36:17.736Z,74.44
2022-09-29T19:38:45.206Z,74.16
2022-09-29T19:41:23.590Z,74.58
2022-09-29T19:43:51.204Z,74.79
2022-09-29T19:46:19.226Z,74.87
2022-09-29T19:48:46.978Z,74.70
2022-09-29T19:51:34.487Z,74.83
2022-09-29T19:54:20.542Z,75.00
2022-09-29T19:56:50.742Z,74.85
2022-09-29T19:59:30.914Z,74.63
2022-09-29T20:01:59.492Z,74.95
2022-09-29T20:04:30.306Z,74.60
2022-09-29T20:06:58.108Z,74.44
2022-09-29T20:09:25.336Z,74.85
2022-09-29T20:11:53.029Z,75.04
2022-09-29T20:14:23.251Z,74.79
2022-09-29T20:16:54.857Z,74.89
2022-09-29T20:19:24.061Z,75.07
2022-09-29T20:21:53.265Z,75.12
2022-09-29T20:24:24.006Z,75.01
2022-09-29T20:26:51.806Z,75.47
2022-09-29T20:29:19.631Z,75.40
2022-09-29T20:31:48.082Z,75.39
2022-09-29T20:34:18.342Z,74.91
2022-09-29T20:36:47.767Z,75.11
2022-09-29T20:39:19.280Z,75.41
2022-09-29T20:41:46.368Z,75.86
2022-09-29T20:44:13.495Z,75.96
2022-09-29T20:46:40.902Z,75.60
2022-09-29T20:49:09.016Z,75.78
2022-09-29T20:51:38.087Z,75.80
2022-09-29T20:54:05.452Z,75.90
2022-09-29T20:56:40.160Z,75.89
2022-09-29T20:59:18.231Z,76.26
2022-09-29T21:01:45.446Z,76.05
2022-09-29T21:04:18.243Z,76.10
2022-09-29T21:06:47.701Z,76.06
2022-09-29T21:09:19.983Z,76.35
2022-09-29T21:11:47.798Z,76.65
2022-09-29T21:14:19.432Z,76.66
2022-09-29T21:16:51.227Z,77.10
2022-09-29T21:19:25.873Z,76.34
2022-09-29T21:21:56.059Z,76.76
2022-09-29T21:24:23.328Z,76.82
2022-09-29T21:26:50.486Z,76.75
2022-09-29T21:29:18.852Z,77.27
2022-09-29T21:31:46.195Z,76.96
2022-09-29T21:34:14.610Z,76.73
2022-09-29T21:36:42.423Z,76.45
2022-09-29T21:39:10.224Z,76.67
2022-09-29T21:41:39.182Z,76.65
2022-09-29T21:44:18.332Z,76.73
2022-09-29T21:46:46.131Z,77.60
2022-09-29T21:49:33.826Z,77.40
2022-09-29T21:52:02.125Z,77.00
2022-09-29T21:54:30.353Z,77.29
2022-09-29T21:56:57.538Z,77.44
2022-09-29T21:59:24.685Z,77.38
2022-09-29T22:01:52.836Z,77.38
2022-09-29T22:04:20.667Z,77.59
2022-09-29T22:06:48.030Z,77.70
2022-09-29T22:09:20.630Z,77.78
2022-09-29T22:11:49.912Z,77.66
2022-09-29T22:14:17.587Z,77.78
2022-09-29T22:16:44.774Z,77.90
2022-09-29T22:19:28.192Z,77.80
2022-09-29T22:21:55.527Z,78.00
2022-09-29T22:24:24.086Z,78.46
2022-09-29T22:26:51.855Z,78.69
2022-09-29T22:29:19.725Z,78.08
2022-09-29T22:31:47.251Z,78.13
2022-09-29T22:34:14.698Z,78.32
2022-09-29T22:36:41.809Z,78.70
2022-09-29T22:39:09.566Z,79.18
2022-09-29T22:41:39.544Z,79.49
2022-09-29T22:44:07.823Z,79.59
2022-09-29T22:46:35.639Z,79.33
2022-09-29T22:49:03.308Z,78.89
2022-09-29T22:51:30.484Z,78.97
2022-09-29T22:53:57.512Z,79.02
2022-09-29T22:56:28.748Z,78.87
2022-09-29T22:59:03.063Z,78.86
2022-09-29T23:01:30.660Z,79.40
2022-09-29T23:03:58.021Z,79.66
2022-09-29T23:06:25.532Z,79.32
2022-09-29T23:08:54.793Z,79.15
2022-09-29T23:11:22.249Z,79.20
2022-09-29T23:13:49.620Z,79.52
2022-09-29T23:16:17.278Z,79.96
2022-09-29T23:18:45.786Z,79.51
2022-09-29T23:21:14.783Z,79.28
2022-09-29T23:23:42.168Z,79.78
2022-09-29T23:26:09.268Z,79.95
2022-09-29T23:28:36.467Z,79.88
2022-09-29T23:31:08.051Z,79.61
2022-09-29T23:33:35.271Z,79.35
2022-09-29T23:36:10.267Z,79.49
2022-09-29T23:38:57.469Z,79.17
2022-09-29T23:41:27.125Z,78.87
2022-09-29T23:43:55.660Z,79.54
2022-09-29T23:46:25.802Z,79.04
2022-09-29T23:48:52.994Z,79.23
2022-09-29T23:51:20.060Z,79.26
2022-09-29T23:53:47.183Z,79.53
2022-09-29T23:56:14.265Z,80.15
2022-09-29T23:58:41.545Z,80.58
